Mário de Almeida Franco Airport
SBUR : now visible

Airfield :











YOU CAN JOIN US ON...

 
LOGIN :

Register | Disclaimer

   EN    FR    IT 

 









Legend :    VFR   Marginal VFR   IFR   Intensive IFR   Very Intensive IFR
Visi :
Ceiling :
>= 8 km
>= 3000ft
5 to 8 km
1000 to 3000 ft
1500m to 5 km
500 to 1000 ft
800 to 1500m
200 to 500 ft
< 800m
< 200 ft
Symbols :   Thunderstorms  Fog  Heavy snow  Heavy precipitations  Wind > 20 kt






- Airport Elevation : 2655 ft
- IATA code : UBA


SBUR - Mário de Almeida Franco

CURRENT METAR :
  • 071000Z 26005KT 9999 FEW049 SCT090 22/20 Q1018

EXPIRED METARs :
  • 070900Z 03005KT 9999 FEW049 SCT070 22/19 Q1017

TAF TAF SBUR
Valid from the 07 at 06:00 until the 07 at 18:00 UTC


070200Z 0706/0718 36006KT CAVOK TN22/0709Z TX28/0715Z
BECMG 0712/0714 25006KT 9999 SCT035 RMK PGE



MET'MAP, your aeronautical weather chart ! - Copyright ORBIFLY December 2007 - Disclaimer

ORBIFLY MET'MAP TEAM :

Programming & Development : Alexandra Zaïnal
Concept & original design : Baudouin d'Aumeries
Assistance for programming : Marc-Olivier Méhu
Technical & hardware support : Manuel Goepfert

Contact : metmap@orbifly.com




SOURCES & CREDITS :

   NOAA       Earth
Advisory